Time;durP1;ratioP1;P1;durP2;ratioP2;P2;SDS_P1;SDS_P2;PMS_P1;PMS_P2;Temp;Humidity;BMP_temperature;BMP_pressure;BME280_temperature;BME280_humidity;BME280_pressure;Samples;Min_cycle;Max_cycle;Signal;HPM_P1;HPM_P2
2021/03/26 00:02:32;;;;;;;2.83;0.77;;;7.80;99.90;;;;;;10370203;28;20037;-49
2021/03/26 00:07:53;;;;;;;2.42;1.08;;;7.80;99.90;;;;;;10370308;28;20423;-49
2021/03/26 00:13:14;;;;;;;5.30;1.00;;;7.80;99.90;;;;;;10375611;28;20045;-48
2021/03/26 00:18:35;;;;;;;3.05;1.20;;;7.80;99.90;;;;;;10376262;28;20025;-48
2021/03/26 00:23:56;;;;;;;3.72;1.15;;;7.80;99.90;;;;;;10384770;28;20045;-48
2021/03/26 00:29:19;;;;;;;1.50;0.80;;;7.80;99.90;;;;;;10365378;28;20049;-49
2021/03/26 00:34:40;;;;;;;7.90;1.30;;;7.70;99.90;;;;;;10371834;28;20515;-49
2021/03/26 00:40:03;;;;;;;5.28;1.13;;;7.80;99.90;;;;;;10375105;28;20058;-48
2021/03/26 00:45:34;;;;;;;3.22;0.90;;;7.80;99.90;;;;;;10360153;28;20033;-49
2021/03/26 00:51:00;;;;;;;3.33;1.27;;;7.60;99.90;;;;;;10358540;28;20108;-48
2021/03/26 00:56:22;;;;;;;1.95;0.82;;;7.50;99.90;;;;;;10372173;28;20084;-49
2021/03/26 01:01:43;;;;;;;3.15;1.58;;;7.50;99.90;;;;;;10363143;28;20068;-49
2021/03/26 01:07:05;;;;;;;2.15;0.95;;;7.50;99.90;;;;;;10372584;28;20320;-49
2021/03/26 01:12:26;;;;;;;3.85;1.83;;;7.50;99.90;;;;;;10349927;28;20049;-49
2021/03/26 01:17:49;;;;;;;5.30;1.40;;;7.50;99.90;;;;;;10359308;28;20042;-49
2021/03/26 01:23:10;;;;;;;3.58;1.85;;;7.60;99.90;;;;;;10380252;28;20086;-49
2021/03/26 01:28:31;;;;;;;3.35;1.60;;;7.50;99.90;;;;;;10360843;28;20413;-48
2021/03/26 01:33:52;;;;;;;3.15;1.30;;;7.40;99.90;;;;;;10373338;28;20440;-49
2021/03/26 01:39:13;;;;;;;4.15;1.50;;;7.40;99.90;;;;;;10368980;28;20038;-49
2021/03/26 01:44:34;;;;;;;3.05;1.65;;;7.40;99.90;;;;;;10375762;28;20513;-49
2021/03/26 01:49:55;;;;;;;3.88;1.55;;;7.40;99.90;;;;;;10361022;28;20413;-49
2021/03/26 01:55:32;;;;;;;3.33;1.20;;;7.30;99.90;;;;;;10367549;28;20456;-49
2021/03/26 02:01:15;;;;;;;4.45;2.17;;;7.40;99.90;;;;;;10356864;28;20038;-49
2021/03/26 02:06:42;;;;;;;6.60;2.17;;;7.30;99.90;;;;;;10372813;28;20044;-49
2021/03/26 02:12:12;;;;;;;4.88;2.35;;;7.30;99.90;;;;;;10372775;28;20081;-49
2021/03/26 02:17:35;;;;;;;3.35;1.60;;;7.30;99.90;;;;;;10357569;28;20103;-49
2021/03/26 02:22:57;;;;;;;5.72;2.33;;;7.40;99.90;;;;;;10366703;28;20710;-49
2021/03/26 02:28:18;;;;;;;4.85;1.45;;;7.40;99.90;;;;;;10362981;28;20061;-49
2021/03/26 02:33:39;;;;;;;5.85;1.63;;;7.30;99.90;;;;;;10375634;28;20121;-49
2021/03/26 02:39:04;;;;;;;4.88;2.08;;;7.40;99.90;;;;;;10376913;28;20045;-49
2021/03/26 02:44:50;;;;;;;3.55;1.50;;;7.40;99.90;;;;;;10377285;28;20034;-49
2021/03/26 02:50:20;;;;;;;5.50;1.65;;;7.50;99.90;;;;;;10374950;28;20072;-49
2021/03/26 02:55:43;;;;;;;;;;;7.50;99.90;;;;;;10379748;28;20065;-49
2021/03/26 03:01:37;;;;;;;7.05;2.22;;;7.50;99.90;;;;;;10380378;28;20338;-49
2021/03/26 03:07:07;;;;;;;7.88;2.50;;;7.40;99.90;;;;;;10356406;28;20053;-49
2021/03/26 03:12:33;;;;;;;6.00;2.58;;;7.50;99.90;;;;;;10369310;28;20080;-49
2021/03/26 03:18:04;;;;;;;6.13;2.47;;;7.50;99.90;;;;;;10345783;28;20388;-49
2021/03/26 03:23:28;;;;;;;6.55;2.83;;;7.50;99.90;;;;;;10375135;28;20037;-49
2021/03/26 03:29:12;;;;;;;8.73;3.25;;;7.40;99.90;;;;;;10381067;28;20037;-49
2021/03/26 03:34:35;;;;;;;7.00;2.92;;;7.50;99.90;;;;;;10376984;28;20040;-49
2021/03/26 03:40:02;;;;;;;13.40;4.40;;;7.50;99.90;;;;;;10377005;28;20120;-49
2021/03/26 03:45:42;;;;;;;9.43;3.70;;;7.50;99.90;;;;;;10372925;28;20381;-49
2021/03/26 03:51:18;;;;;;;15.98;5.20;;;7.40;99.90;;;;;;10381124;28;20044;-49
2021/03/26 03:57:09;;;;;;;13.48;3.50;;;7.40;99.90;;;;;;10378351;28;20089;-49
2021/03/26 04:02:48;;;;;;;18.25;4.25;;;7.40;99.90;;;;;;10360244;28;20033;-49
2021/03/26 04:08:16;;;;;;;12.25;5.13;;;7.40;99.90;;;;;;10372152;28;20067;-49
2021/03/26 04:13:44;;;;;;;10.07;4.03;;;7.40;99.90;;;;;;10378250;28;20104;-49
2021/03/26 04:19:15;;;;;;;9.63;3.67;;;7.60;99.90;;;;;;10377879;28;20129;-49
2021/03/26 04:24:53;;;;;;;14.50;4.38;;;7.60;99.90;;;;;;10371429;28;20033;-49
2021/03/26 04:30:25;;;;;;;11.90;4.05;;;7.60;99.90;;;;;;10375854;28;20124;-49
2021/03/26 04:35:49;;;;;;;13.07;4.47;;;7.60;99.90;;;;;;10370905;28;20030;-49
2021/03/26 04:41:49;;;;;;;10.43;3.50;;;7.70;99.90;;;;;;10373564;28;20124;-49
2021/03/26 04:47:24;;;;;;;11.13;4.45;;;7.70;99.90;;;;;;10368722;28;20053;-49
2021/03/26 04:52:49;;;;;;;13.70;4.95;;;7.80;99.90;;;;;;10365824;28;20115;-49
2021/03/26 04:58:18;;;;;;;17.10;5.00;;;7.90;99.90;;;;;;10378835;28;20060;-49
2021/03/26 05:03:45;;;;;;;18.05;5.22;;;7.90;99.90;;;;;;10367239;28;20529;-49
2021/03/26 05:09:21;;;;;;;15.23;4.35;;;8.00;99.90;;;;;;10375546;28;20056;-49
2021/03/26 05:14:51;;;;;;;11.73;3.95;;;8.00;99.90;;;;;;10356480;28;20149;-49
2021/03/26 05:20:31;;;;;;;11.07;3.97;;;8.00;99.90;;;;;;10362287;28;20041;-49
2021/03/26 05:25:57;;;;;;;11.02;4.45;;;8.10;99.90;;;;;;10332725;28;20385;-49
2021/03/26 05:31:31;;;;;;;14.02;4.50;;;8.10;99.90;;;;;;10335528;28;20030;-49
2021/03/26 05:37:11;;;;;;;11.45;3.67;;;8.10;99.90;;;;;;10340760;28;20038;-49
2021/03/26 05:42:43;;;;;;;17.50;4.95;;;8.20;99.90;;;;;;10333593;28;20056;-49
2021/03/26 05:48:24;;;;;;;9.40;4.15;;;8.10;99.90;;;;;;10335473;28;20045;-49
2021/03/26 05:54:00;;;;;;;13.10;5.07;;;8.10;99.90;;;;;;10334195;28;20033;-49
2021/03/26 05:59:53;;;;;;;8.52;4.28;;;8.20;99.90;;;;;;10333429;28;20046;-49
2021/03/26 06:05:18;;;;;;;12.68;4.65;;;8.20;99.90;;;;;;10359773;28;20481;-49
2021/03/26 06:10:45;;;;;;;14.63;4.32;;;8.10;99.90;;;;;;10368491;28;20034;-49
2021/03/26 06:16:21;;;;;;;10.40;3.28;;;8.10;99.90;;;;;;10377277;28;20104;-49
2021/03/26 06:22:01;;;;;;;11.50;4.55;;;8.10;99.90;;;;;;10367013;28;20042;-48
2021/03/26 06:27:44;;;;;;;11.77;3.22;;;8.10;99.90;;;;;;10385562;28;20041;-49
2021/03/26 06:33:27;;;;;;;16.27;5.45;;;8.20;99.90;;;;;;10389626;28;20044;-49
2021/03/26 06:39:22;;;;;;;10.25;3.80;;;8.20;99.90;;;;;;10356557;28;20501;-49
2021/03/26 06:45:01;;;;;;;11.70;3.30;;;8.30;99.90;;;;;;10379413;28;20037;-49
2021/03/26 06:51:01;;;;;;;8.98;3.50;;;8.40;99.90;;;;;;10376820;28;20494;-49
2021/03/26 06:56:40;;;;;;;10.82;3.33;;;8.50;99.90;;;;;;10370820;28;20115;-49
2021/03/26 07:02:04;;;;;;;10.55;3.75;;;8.50;99.90;;;;;;10376842;28;20042;-49
2021/03/26 07:08:04;;;;;;;7.75;3.38;;;8.60;99.90;;;;;;10398972;28;20053;-49
2021/03/26 07:13:46;;;;;;;9.45;3.65;;;8.70;99.90;;;;;;10388844;28;20558;-49
2021/03/26 07:19:28;;;;;;;12.15;3.80;;;8.80;99.90;;;;;;10380444;28;20108;-49
2021/03/26 07:24:58;;;;;;;11.63;4.18;;;9.00;99.90;;;;;;10384660;28;20562;-49
2021/03/26 07:30:35;;;;;;;8.23;3.70;;;9.10;99.90;;;;;;10386361;28;20115;-48
2021/03/26 07:36:11;;;;;;;10.38;4.43;;;9.30;99.90;;;;;;10384204;28;20037;-49
2021/03/26 07:42:09;;;;;;;8.10;2.83;;;9.40;99.90;;;;;;10394227;28;20033;-49
2021/03/26 07:47:44;;;;;;;9.95;3.83;;;9.40;99.90;;;;;;10347159;28;20144;-49
2021/03/26 07:53:18;;;;;;;11.07;3.97;;;9.50;99.90;;;;;;10390452;28;20060;-49
2021/03/26 07:59:07;;;;;;;8.48;3.97;;;9.70;99.90;;;;;;10381170;28;20095;-49
2021/03/26 08:04:50;;;;;;;10.68;3.28;;;9.90;99.90;;;;;;10385392;28;20068;-49
2021/03/26 08:10:28;;;;;;;10.15;4.40;;;10.00;99.90;;;;;;10376457;28;20086;-49
2021/03/26 08:16:06;;;;;;;8.73;3.63;;;10.20;99.90;;;;;;10353287;28;674569;-49
2021/03/26 08:21:49;;;;;;;9.13;3.95;;;10.40;99.90;;;;;;10381463;28;20783;-49
2021/03/26 08:27:32;;;;;;;9.52;3.35;;;10.60;99.90;;;;;;10381664;28;20038;-49
2021/03/26 08:33:22;;;;;;;10.00;3.90;;;10.90;99.90;;;;;;10375502;28;20088;-49
2021/03/26 08:38:46;;;;;;;10.20;4.00;;;11.10;99.90;;;;;;10369262;28;20076;-49
2021/03/26 08:44:16;;;;;;;9.73;3.92;;;11.20;99.90;;;;;;10364060;28;20192;-49
2021/03/26 08:49:51;;;;;;;12.73;4.38;;;11.20;99.90;;;;;;10376713;28;20480;-49
2021/03/26 08:55:42;;;;;;;11.38;4.32;;;11.50;99.90;;;;;;10365525;28;20454;-49
2021/03/26 09:01:24;;;;;;;7.97;3.00;;;11.60;99.90;;;;;;10376079;28;20040;-49
2021/03/26 09:07:06;;;;;;;8.93;3.17;;;11.90;99.90;;;;;;10359375;28;20049;-49
2021/03/26 09:12:42;;;;;;;16.55;4.75;;;12.00;99.90;;;;;;10370691;28;20515;-48
2021/03/26 09:18:18;;;;;;;6.75;3.28;;;12.10;99.90;;;;;;10373868;28;20046;-49
2021/03/26 09:24:01;;;;;;;8.35;3.50;;;12.40;99.90;;;;;;10372846;28;20041;-49
2021/03/26 09:29:35;;;;;;;9.07;3.20;;;12.90;99.90;;;;;;10368396;28;20133;-50
2021/03/26 09:35:09;;;;;;;12.60;3.55;;;13.30;99.90;;;;;;10375198;28;20037;-49
2021/03/26 09:41:08;;;;;;;5.82;2.17;;;13.40;99.90;;;;;;10371345;28;20045;-49
2021/03/26 09:46:49;;;;;;;8.02;2.70;;;13.20;99.90;;;;;;10371709;28;20046;-49
2021/03/26 09:52:32;;;;;;;7.68;2.50;;;13.30;99.90;;;;;;10381433;28;20608;-49
2021/03/26 09:58:21;;;;;;;7.47;2.92;;;13.70;99.90;;;;;;10371789;28;20045;-49
2021/03/26 10:04:01;;;;;;;6.60;2.40;;;13.60;99.90;;;;;;10324467;28;20050;-49
2021/03/26 10:09:30;;;;;;;5.43;2.15;;;13.90;99.90;;;;;;10327320;28;20163;-49
2021/03/26 10:15:03;;;;;;;14.23;2.83;;;14.30;99.90;;;;;;10366685;28;20073;-48
2021/03/26 10:20:24;;;;;;;3.38;1.65;;;13.80;99.90;;;;;;10371003;28;20051;-48
2021/03/26 10:25:51;;;;;;;6.47;1.80;;;13.60;99.90;;;;;;10372376;28;20076;-48
2021/03/26 10:31:18;;;;;;;4.18;1.35;;;14.00;99.90;;;;;;10372375;28;20045;-49
2021/03/26 10:36:45;;;;;;;3.60;1.08;;;14.40;99.90;;;;;;10372534;28;20323;-48
2021/03/26 10:42:20;;;;;;;6.80;1.40;;;14.50;99.90;;;;;;10370255;28;20556;-49
2021/03/26 10:48:08;;;;;;;1.50;0.70;;;14.40;99.90;;;;;;10362098;28;20418;-49
2021/03/26 10:53:36;;;;;;;2.17;0.90;;;15.00;99.90;;;;;;10366931;28;20045;-49
2021/03/26 10:59:05;;;;;;;10.57;1.10;;;14.90;99.90;;;;;;10377605;28;20489;-49
2021/03/26 11:04:28;;;;;;;3.28;1.20;;;14.60;99.90;;;;;;10396470;28;20242;-49
2021/03/26 11:09:55;;;;;;;3.95;2.03;;;14.30;99.90;;;;;;10369995;28;20056;-49
2021/03/26 11:15:19;;;;;;;5.97;2.25;;;13.80;99.90;;;;;;10354035;28;20050;-48
2021/03/26 11:20:43;;;;;;;3.97;1.60;;;14.30;99.90;;;;;;10372899;28;20045;-49
2021/03/26 11:26:04;;;;;;;2.88;1.48;;;14.30;99.90;;;;;;10356253;28;20049;-49
2021/03/26 11:31:49;;;;;;;4.20;1.65;;;14.70;99.90;;;;;;10376669;28;20039;-48
2021/03/26 11:37:13;;;;;;;4.20;1.15;;;14.50;99.90;;;;;;10369348;28;20034;-48
2021/03/26 11:42:46;;;;;;;2.17;0.93;;;15.30;99.90;;;;;;10364494;28;20095;-48
2021/03/26 11:48:18;;;;;;;9.13;1.60;;;16.40;99.90;;;;;;10386925;28;20041;-48
2021/03/26 11:54:00;;;;;;;3.13;1.25;;;16.10;99.80;;;;;;10378470;28;20052;-48
2021/03/26 11:59:47;;;;;;;3.70;0.90;;;15.90;99.90;;;;;;10373092;28;20124;-49
2021/03/26 12:05:22;;;;;;;1.77;0.98;;;16.00;99.90;;;;;;10336739;28;20058;-48
2021/03/26 12:11:01;;;;;;;2.08;0.93;;;15.50;99.90;;;;;;10335436;28;20109;-49
2021/03/26 12:16:25;;;;;;;1.25;0.55;;;16.30;98.50;;;;;;10332698;28;20701;-48
2021/03/26 12:22:35;;;;;;;1.83;1.00;;;16.80;97.80;;;;;;10334433;28;20626;-48
2021/03/26 12:28:04;;;;;;;3.80;0.93;;;16.50;97.10;;;;;;10335518;28;20140;-49
2021/03/26 12:33:34;;;;;;;;;;;15.80;99.00;;;;;;10360191;28;20091;-49
2021/03/26 12:39:10;;;;;;;6.50;1.33;;;16.70;98.20;;;;;;10375268;28;19913;-49
2021/03/26 12:44:59;;;;;;;3.30;0.90;;;15.90;98.80;;;;;;10375265;28;20544;-49
2021/03/26 12:51:01;;;;;;;2.27;1.10;;;17.70;97.40;;;;;;10357770;28;20039;-49
2021/03/26 12:56:48;;;;;;;4.88;1.50;;;16.50;95.90;;;;;;10373024;28;20030;-49
2021/03/26 13:02:12;;;;;;;2.20;1.35;;;15.80;99.40;;;;;;10373069;28;20481;-49
2021/03/26 13:07:44;;;;;;;2.28;0.90;;;16.40;97.80;;;;;;10378056;28;20446;-49
2021/03/26 13:13:27;;;;;;;2.00;1.00;;;16.60;96.80;;;;;;10373827;28;20123;-49
2021/03/26 13:19:14;;;;;;;3.28;1.00;;;15.80;99.90;;;;;;10363989;28;20041;-49
2021/03/26 13:24:58;;;;;;;2.15;0.90;;;17.50;96.00;;;;;;10358477;28;20070;-49
2021/03/26 13:30:39;;;;;;;3.50;1.95;;;17.40;96.10;;;;;;10369517;28;20052;-49
2021/03/26 13:36:11;;;;;;;4.45;1.17;;;15.50;99.90;;;;;;10370581;28;20061;-48
2021/03/26 13:42:45;;;;;;;4.88;1.08;;;14.50;99.90;;;;;;10347089;28;20065;-48
2021/03/26 13:48:14;;;;;;;2.95;1.17;;;14.00;99.90;;;;;;10252312;28;20081;-48
2021/03/26 13:53:57;;;;;;;1.90;0.80;;;13.80;99.90;;;;;;10353676;28;20124;-48
2021/03/26 13:59:35;;;;;;;1.70;0.82;;;13.70;99.90;;;;;;10348181;28;20057;-48
2021/03/26 14:04:55;;;;;;;2.53;1.10;;;13.80;99.90;;;;;;10363046;28;20048;-48
2021/03/26 14:11:05;;;;;;;1.20;0.50;;;14.10;99.90;;;;;;10386181;28;20072;-48
2021/03/26 14:16:41;;;;;;;7.38;1.02;;;14.20;99.90;;;;;;10344109;28;20046;-48
2021/03/26 14:22:23;;;;;;;1.55;0.80;;;14.10;99.90;;;;;;10385769;28;20397;-48
2021/03/26 14:28:22;;;;;;;1.50;0.80;;;13.90;99.90;;;;;;10394922;28;20041;-48
2021/03/26 14:33:50;;;;;;;3.45;1.10;;;13.70;99.90;;;;;;10394616;28;20038;-48
2021/03/26 14:39:28;;;;;;;1.58;0.80;;;13.50;99.90;;;;;;10393754;28;20033;-48
2021/03/26 14:44:49;;;;;;;1.90;1.00;;;13.50;99.90;;;;;;10396328;28;20030;-48
2021/03/26 14:50:10;;;;;;;2.10;0.80;;;13.70;99.90;;;;;;10391197;28;20499;-48
2021/03/26 14:55:41;;;;;;;1.15;0.50;;;13.50;99.90;;;;;;10390244;28;20034;-48
2021/03/26 15:01:24;;;;;;;2.65;0.75;;;13.30;99.90;;;;;;10396690;28;20385;-48
2021/03/26 15:07:03;;;;;;;2.38;1.00;;;13.30;99.90;;;;;;10400599;28;20033;-48
2021/03/26 15:12:46;;;;;;;1.48;0.73;;;13.30;99.90;;;;;;10379770;28;20033;-48
2021/03/26 15:18:29;;;;;;;1.50;0.57;;;13.30;99.90;;;;;;10368935;28;20048;-48
2021/03/26 15:24:19;;;;;;;1.88;0.70;;;13.20;99.90;;;;;;10357469;28;20324;-48
2021/03/26 15:30:10;;;;;;;4.97;1.23;;;13.30;99.90;;;;;;10345169;28;20204;-48
2021/03/26 15:35:45;;;;;;;0.90;0.38;;;13.10;99.90;;;;;;10362691;28;20461;-48
2021/03/26 15:41:06;;;;;;;1.40;0.47;;;13.30;99.90;;;;;;10341614;28;20103;-48
2021/03/26 15:46:43;;;;;;;1.95;0.45;;;13.30;99.90;;;;;;10362008;28;20049;-49
2021/03/26 15:52:25;;;;;;;2.15;0.90;;;13.40;99.90;;;;;;10366469;28;20041;-49
2021/03/26 15:57:55;;;;;;;2.63;0.80;;;13.60;99.90;;;;;;10367572;28;20040;-48
2021/03/26 16:03:40;;;;;;;;;;;13.20;99.90;;;;;;10374204;28;20113;-48
2021/03/26 16:09:23;;;;;;;4.32;0.75;;;13.30;99.90;;;;;;10356549;28;19924;-48
2021/03/26 16:14:59;;;;;;;1.17;0.63;;;13.50;99.90;;;;;;10370064;28;20046;-48
2021/03/26 16:20:53;;;;;;;1.75;0.57;;;13.60;99.90;;;;;;10359218;28;20046;-49
2021/03/26 16:26:24;;;;;;;5.25;0.80;;;13.50;99.90;;;;;;10366294;28;20119;-48
2021/03/26 16:31:56;;;;;;;3.08;0.95;;;13.60;99.90;;;;;;10357813;28;20042;-48
2021/03/26 16:37:32;;;;;;;2.33;1.05;;;13.50;99.90;;;;;;10380186;28;20061;-49
2021/03/26 16:43:22;;;;;;;2.30;0.60;;;13.40;99.90;;;;;;10380255;28;20197;-48
2021/03/26 16:49:19;;;;;;;;;;;13.20;99.90;;;;;;10366972;28;20058;-48
2021/03/26 16:54:52;;;;;;;1.05;0.60;;;13.20;99.90;;;;;;10335681;28;19913;-48
2021/03/26 17:00:49;;;;;;;1.17;0.60;;;13.20;99.90;;;;;;10379106;28;20041;-48
2021/03/26 17:06:19;;;;;;;1.10;0.50;;;13.00;99.90;;;;;;10361889;28;20045;-48
2021/03/26 17:11:55;;;;;;;2.58;1.00;;;12.90;99.90;;;;;;10382937;28;20149;-48
2021/03/26 17:17:56;;;;;;;10.30;1.13;;;13.00;99.90;;;;;;10383674;28;20104;-48
2021/03/26 17:23:53;;;;;;;3.20;0.98;;;12.90;99.90;;;;;;10376579;28;20493;-48
2021/03/26 17:29:19;;;;;;;2.28;0.90;;;12.70;99.90;;;;;;10387194;28;20643;-48
2021/03/26 17:35:02;;;;;;;2.33;0.82;;;12.60;99.90;;;;;;10369455;28;20029;-48
2021/03/26 17:41:00;;;;;;;1.55;0.70;;;12.40;99.90;;;;;;10365107;28;20140;-48
2021/03/26 17:46:29;;;;;;;2.70;0.70;;;12.40;99.90;;;;;;10379757;28;20079;-48
2021/03/26 17:51:52;;;;;;;4.13;1.55;;;12.30;99.90;;;;;;10360965;28;20123;-48
2021/03/26 17:57:38;;;;;;;3.60;0.73;;;12.30;99.90;;;;;;10387432;28;20464;-48
2021/03/26 18:03:18;;;;;;;2.40;0.85;;;12.10;99.90;;;;;;10362389;28;20520;-48
2021/03/26 18:09:00;;;;;;;2.88;1.15;;;12.10;99.90;;;;;;10346872;28;20249;-48
2021/03/26 18:14:37;;;;;;;3.80;1.55;;;12.00;99.90;;;;;;10377418;28;20060;-48
2021/03/26 18:20:25;;;;;;;2.63;1.00;;;12.00;99.90;;;;;;10390073;28;20048;-49
2021/03/26 18:26:24;;;;;;;2.90;0.80;;;11.90;99.90;;;;;;10393435;28;20042;-49
2021/03/26 18:32:21;;;;;;;1.80;0.70;;;11.90;99.90;;;;;;10387712;28;20033;-49
2021/03/26 18:37:54;;;;;;;3.60;1.23;;;11.80;99.90;;;;;;10397977;28;20052;-48
2021/03/26 18:43:38;;;;;;;3.25;1.20;;;11.70;99.90;;;;;;10397697;28;20684;-48
2021/03/26 18:49:29;;;;;;;4.85;1.17;;;11.60;99.90;;;;;;10398855;28;20060;-48
2021/03/26 18:55:08;;;;;;;;;;;11.60;99.90;;;;;;10397467;28;20161;-48
2021/03/26 19:01:07;;;;;;;3.67;1.10;;;11.50;99.90;;;;;;10414668;28;19921;-48
2021/03/26 19:06:33;;;;;;;4.22;1.08;;;11.40;99.90;;;;;;10360112;28;20557;-48
2021/03/26 19:12:00;;;;;;;4.57;1.08;;;11.40;99.90;;;;;;10340375;28;20431;-48
2021/03/26 19:17:34;;;;;;;2.55;1.13;;;11.40;99.90;;;;;;10356417;28;20144;-48
2021/03/26 19:23:06;;;;;;;2.47;1.35;;;11.40;99.90;;;;;;10383584;28;20294;-48
2021/03/26 19:28:50;;;;;;;5.18;1.50;;;11.40;99.90;;;;;;10366884;28;20049;-48
2021/03/26 19:34:32;;;;;;;3.38;1.50;;;11.40;99.90;;;;;;10370684;28;20037;-48
2021/03/26 19:40:01;;;;;;;2.38;1.23;;;11.40;99.90;;;;;;10362199;28;20527;-48
2021/03/26 19:45:28;;;;;;;;;;;11.40;99.90;;;;;;10352470;28;20078;-48
2021/03/26 19:50:55;;;;;;;5.53;2.17;;;11.30;99.90;;;;;;10356022;28;19925;-48
2021/03/26 19:56:46;;;;;;;6.00;1.88;;;11.20;99.90;;;;;;10359946;28;20030;-48
2021/03/26 20:02:40;;;;;;;3.97;1.75;;;11.30;99.90;;;;;;10354431;28;20370;-48
2021/03/26 20:08:23;;;;;;;3.67;1.52;;;11.30;99.90;;;;;;10359069;28;20713;-48
2021/03/26 20:14:05;;;;;;;4.82;1.70;;;11.20;99.90;;;;;;10341642;28;20171;-48
2021/03/26 20:19:30;;;;;;;7.93;2.42;;;11.40;99.90;;;;;;10352273;28;20034;-48
2021/03/26 20:25:23;;;;;;;2.97;1.55;;;11.30;99.90;;;;;;10355381;28;20037;-49
2021/03/26 20:30:56;;;;;;;6.65;1.38;;;11.40;99.90;;;;;;10352833;28;20052;-48
2021/03/26 20:36:33;;;;;;;3.92;1.35;;;11.40;99.90;;;;;;10325396;28;20056;-48
2021/03/26 20:42:12;;;;;;;9.85;1.67;;;11.60;99.90;;;;;;10367133;28;20029;-49
2021/03/26 20:47:47;;;;;;;0.60;0.20;;;11.60;99.90;;;;;;10337516;28;20053;-48
2021/03/26 20:53:24;;;;;;;0.40;0.20;;;10.70;99.90;;;;;;10361189;28;20075;-48
2021/03/26 20:58:48;;;;;;;1.08;0.30;;;10.20;99.90;;;;;;10358477;28;20042;-49
2021/03/26 21:04:09;;;;;;;0.45;0.20;;;9.80;99.90;;;;;;10403021;28;20523;-48
2021/03/26 21:09:38;;;;;;;0.43;0.10;;;9.50;99.90;;;;;;10395971;28;20486;-48
2021/03/26 21:15:07;;;;;;;3.97;0.43;;;9.20;99.90;;;;;;10382106;28;20566;-48
2021/03/26 21:20:37;;;;;;;1.83;0.20;;;8.90;99.90;;;;;;10407622;28;20049;-48
2021/03/26 21:26:07;;;;;;;3.05;1.17;;;8.70;99.90;;;;;;10403230;28;20103;-48
2021/03/26 21:31:42;;;;;;;;;;;8.60;99.90;;;;;;10366886;28;20033;-48
2021/03/26 21:37:21;;;;;;;0.47;0.43;;;8.50;99.90;;;;;;10410539;28;19921;-48
2021/03/26 21:42:51;;;;;;;0.10;0.00;;;8.20;99.90;;;;;;10399482;28;20116;-49
2021/03/26 21:48:35;;;;;;;0.20;0.10;;;8.00;99.90;;;;;;10399933;28;20075;-49
2021/03/26 21:54:12;;;;;;;3.85;0.20;;;7.70;99.90;;;;;;10393667;28;20115;-49
2021/03/26 22:00:02;;;;;;;0.25;0.10;;;7.60;99.90;;;;;;10401183;28;20038;-49
2021/03/26 22:05:32;;;;;;;2.35;0.20;;;7.60;99.90;;;;;;10378841;28;20050;-49
2021/03/26 22:11:04;;;;;;;4.57;0.10;;;7.60;99.90;;;;;;10370895;28;20112;-49
2021/03/26 22:16:57;;;;;;;0.50;0.20;;;7.40;99.90;;;;;;10389952;28;20079;-49
2021/03/26 22:22:40;;;;;;;0.10;0.00;;;7.20;99.90;;;;;;10373638;28;20038;-49
2021/03/26 22:28:17;;;;;;;0.80;0.20;;;7.10;99.90;;;;;;10403410;28;20152;-49
2021/03/26 22:34:10;;;;;;;5.47;0.25;;;7.20;99.90;;;;;;10396827;28;20055;-49
2021/03/26 22:39:39;;;;;;;0.40;0.30;;;7.10;99.90;;;;;;10394311;28;20415;-49
2021/03/26 22:45:05;;;;;;;0.22;0.10;;;7.00;99.90;;;;;;10399499;28;20045;-49
2021/03/26 22:50:35;;;;;;;3.95;0.20;;;7.10;99.90;;;;;;10384686;28;20071;-49
2021/03/26 22:56:19;;;;;;;2.00;0.20;;;6.90;99.90;;;;;;10379164;28;20056;-49
2021/03/26 23:01:40;;;;;;;1.23;0.30;;;6.80;99.90;;;;;;10408315;28;20036;-49
2021/03/26 23:07:27;;;;;;;0.95;0.32;;;6.90;99.90;;;;;;10412959;28;20037;-49
2021/03/26 23:13:18;;;;;;;0.17;0.03;;;6.80;99.90;;;;;;10385376;28;20045;-49
2021/03/26 23:19:04;;;;;;;1.05;0.22;;;6.70;99.90;;;;;;10386757;28;20412;-49
2021/03/26 23:24:28;;;;;;;1.23;0.43;;;6.50;99.90;;;;;;10388024;28;20041;-49
2021/03/26 23:29:57;;;;;;;0.38;0.15;;;6.40;99.90;;;;;;10407061;28;20448;-50
2021/03/26 23:35:20;;;;;;;0.37;0.20;;;6.30;99.90;;;;;;10388608;28;20175;-49
2021/03/26 23:40:43;;;;;;;0.52;0.10;;;6.20;99.90;;;;;;10384485;28;20327;-49
2021/03/26 23:46:37;;;;;;;0.15;0.00;;;6.20;99.90;;;;;;10407434;28;20439;-49
2021/03/26 23:52:03;;;;;;;0.20;0.10;;;6.20;99.90;;;;;;10402102;28;20040;-49
2021/03/26 23:57:25;;;;;;;0.30;0.10;;;6.20;99.90;;;;;;10403134;28;20218;-49
